Portada
METAR-TAF:

METAR-TAF

Aeropuertos :

Teherán, Irán

Aeropuerto Internacional de Mehrabad

latitud: 35-41N, longitud: 051-21E, altitud: 1204 m

Observación

El informe se hizo hace 36 minutos, a las 23:00 UTC
Viento 4 kt del norte-noreste
Temperatura 13°C
Humedad 35%
Presión 1018 hPa
Visibilidad 10 km o más
sin nubes por debajo de 1500 m y sin presencia de cumulonimbus.

METAR: OIII 202300Z 03004KT CAVOK 13/M02 Q1018 A3007

Hora: 03:06 (23:36 UTC)

Pronóstico

El informe se hizo hace 5 horas y 56 minutos, a las 17:40 UTC
Pronóstico válido del 20 a las 18 UTC al 21 a las 24 UTC
Viento 8 kt del noroeste
Visibilidad 10 km o más
sin nubes por debajo de 1500 m y sin presencia de cumulonimbus.
Temporalmente
del 21 a las 07 UTC al 21 a las 18 UTC
Viento 10 kt del sur

TAF: OIII 201740Z 2018/2124 32004MPS CAVOK TEMPO 2107/2118 17005MPS

Observaciones y pronósticos meteorológicos de más de 4000 aeropuertos (mensajes METAR y TAF).

Los puntos amarillos y rojos representan las estaciones disponibles.

Ponga el ratón en el punto deseado para ver el nombre de la estación.

Haga clic para ver las observaciones y los pronósticos meteorológicos.

Para cambiar el mapa : haga clic en los botones verdes con una cruz de color negro para hacer un zoom, en el botón verde con un guión para alejar o en las flechas verdes para mapas adyacentes.


METAR-TAF: